Time;durP1;ratioP1;P1;durP2;ratioP2;P2;SDS_P1;SDS_P2;PMS_P1;PMS_P2;Temp;Humidity;BMP_temperature;BMP_pressure;BME280_temperature;BME280_humidity;BME280_pressure;Samples;Min_cycle;Max_cycle;Signal;HPM_P1;HPM_P2
2022/12/08 00:01:41;;;;;;;35.93;24.37;;;5.30;99.90;;;;;;5097062;28;20182;-70
2022/12/08 00:04:07;;;;;;;36.20;23.10;;;5.30;99.90;;;;;;5096716;28;20168;-70
2022/12/08 00:09:23;;;;;;;36.83;23.40;;;5.10;99.90;;;;;;5096815;28;20603;-70
2022/12/08 00:11:54;;;;;;;38.93;23.93;;;5.20;99.90;;;;;;5096499;28;20243;-71
2022/12/08 00:14:23;;;;;;;35.87;22.13;;;5.10;99.90;;;;;;5096737;28;20700;-70
2022/12/08 00:16:49;;;;;;;38.03;23.33;;;5.10;99.90;;;;;;5096772;28;20165;-70
2022/12/08 00:19:15;;;;;;;37.00;23.87;;;5.10;99.90;;;;;;5096070;28;20172;-71
2022/12/08 00:21:40;;;;;;;36.60;23.53;;;5.10;99.90;;;;;;5096778;28;20160;-70
2022/12/08 00:24:06;;;;;;;37.33;23.17;;;5.10;99.90;;;;;;5096487;28;20179;-69
2022/12/08 00:26:32;;;;;;;35.90;23.20;;;5.00;99.90;;;;;;5096446;28;20204;-71
2022/12/08 00:28:58;;;;;;;35.10;24.13;;;5.00;99.90;;;;;;5078109;28;20172;-71
2022/12/08 00:31:23;;;;;;;33.50;22.13;;;5.00;99.90;;;;;;5096437;28;20179;-70
2022/12/08 00:33:49;;;;;;;34.57;23.23;;;5.00;99.90;;;;;;5077985;28;20172;-71
2022/12/08 00:36:14;;;;;;;34.70;23.23;;;4.90;99.90;;;;;;5096317;28;20172;-70
2022/12/08 00:38:40;;;;;;;32.43;22.30;;;4.90;99.90;;;;;;5096272;28;20164;-71
2022/12/08 00:41:11;;;;;;;32.37;21.53;;;4.90;99.90;;;;;;5096194;28;20190;-70
2022/12/08 00:43:36;;;;;;;35.10;22.77;;;4.90;99.90;;;;;;5096303;28;20183;-71
2022/12/08 00:46:02;;;;;;;38.87;23.03;;;4.90;99.90;;;;;;5077771;28;20211;-69
2022/12/08 00:48:28;;;;;;;41.17;23.43;;;4.80;99.90;;;;;;5095676;28;20182;-70
2022/12/08 00:50:53;;;;;;;31.10;20.70;;;4.80;99.90;;;;;;5096000;28;20174;-70
2022/12/08 00:53:19;;;;;;;35.37;22.37;;;4.80;99.90;;;;;;5095973;28;20206;-70
2022/12/08 00:55:44;;;;;;;34.03;22.70;;;4.70;99.90;;;;;;5095931;28;20172;-70
2022/12/08 00:58:10;;;;;;;39.20;22.83;;;4.80;99.90;;;;;;5095940;28;20575;-70
2022/12/08 01:00:36;;;;;;;36.63;22.97;;;4.80;99.90;;;;;;5095380;28;20543;-70
2022/12/08 01:03:01;;;;;;;33.93;22.33;;;4.80;99.90;;;;;;5095514;28;20241;-70
2022/12/08 01:05:27;;;;;;;40.07;24.30;;;4.80;99.90;;;;;;5095610;28;20204;-70
2022/12/08 01:07:52;;;;;;;33.80;22.97;;;4.70;99.90;;;;;;5095771;28;20179;-70
2022/12/08 01:10:18;;;;;;;35.43;22.87;;;4.60;99.90;;;;;;5093980;28;20603;-70
2022/12/08 01:12:43;;;;;;;39.03;23.93;;;4.60;99.90;;;;;;5095694;28;20168;-70
2022/12/08 01:15:09;;;;;;;40.97;24.13;;;4.70;99.90;;;;;;5095596;28;20658;-69
2022/12/08 01:17:36;;;;;;;34.80;23.47;;;4.70;99.90;;;;;;5095266;28;20202;-70
2022/12/08 01:20:03;;;;;;;50.43;25.43;;;4.60;99.90;;;;;;5095424;28;20205;-70
2022/12/08 01:22:28;;;;;;;42.17;24.93;;;4.60;99.90;;;;;;5095575;28;20203;-70
2022/12/08 01:24:54;;;;;;;36.50;24.17;;;4.50;99.90;;;;;;5095300;28;20241;-70
2022/12/08 01:27:20;;;;;;;39.43;24.87;;;4.60;99.90;;;;;;5095370;28;20650;-70
2022/12/08 01:29:45;;;;;;;39.63;25.03;;;4.60;99.90;;;;;;5094917;28;20179;-70
2022/12/08 01:32:11;;;;;;;37.40;24.63;;;4.60;99.90;;;;;;5095201;28;20229;-70
2022/12/08 01:34:36;;;;;;;36.73;24.23;;;4.60;99.90;;;;;;5077020;28;20263;-70
2022/12/08 01:37:02;;;;;;;36.17;24.70;;;4.50;99.90;;;;;;5095346;28;20539;-70
2022/12/08 01:39:29;;;;;;;40.87;24.33;;;4.50;99.90;;;;;;5094997;28;20188;-70
2022/12/08 01:41:55;;;;;;;41.57;23.90;;;4.40;99.90;;;;;;5093805;28;20180;-70
2022/12/08 01:44:20;;;;;;;40.23;24.80;;;4.40;99.90;;;;;;5094841;28;20166;-71
2022/12/08 01:46:47;;;;;;;38.20;24.27;;;4.30;99.90;;;;;;5094948;28;20218;-71
2022/12/08 01:49:16;;;;;;;40.23;25.17;;;4.30;99.90;;;;;;5094921;28;20164;-71
2022/12/08 01:52:01;;;;;;;41.43;26.10;;;4.20;99.90;;;;;;5094935;28;20171;-70
2022/12/08 01:54:35;;;;;;;42.73;26.50;;;4.30;99.90;;;;;;5080692;28;20190;-71
2022/12/08 01:57:12;;;;;;;47.10;27.43;;;4.20;99.90;;;;;;5094702;28;20530;-70
2022/12/08 01:59:43;;;;;;;46.67;27.23;;;4.10;99.90;;;;;;5094460;28;20163;-70
2022/12/08 02:02:11;;;;;;;47.30;27.53;;;4.20;99.90;;;;;;5094739;28;20194;-70
2022/12/08 02:04:37;;;;;;;52.23;28.87;;;4.20;99.90;;;;;;5094457;28;20173;-69
2022/12/08 02:07:04;;;;;;;45.43;29.37;;;4.20;99.90;;;;;;5094617;28;20238;-70
2022/12/08 02:09:29;;;;;;;48.47;30.03;;;4.20;99.90;;;;;;5094348;28;20160;-70
2022/12/08 02:11:57;;;;;;;53.37;30.53;;;4.10;99.90;;;;;;5093858;28;20574;-70
2022/12/08 02:14:23;;;;;;;51.83;28.63;;;4.10;99.90;;;;;;5093869;28;20163;-70
2022/12/08 02:17:44;;;;;;;47.27;28.07;;;4.10;99.90;;;;;;5094403;28;20175;-69
2022/12/08 02:20:25;;;;;;;53.47;28.80;;;4.00;99.90;;;;;;5012358;28;20202;-70
2022/12/08 02:23:04;;;;;;;53.03;28.63;;;4.00;99.90;;;;;;5012354;28;20170;-69
2022/12/08 02:25:42;;;;;;;44.77;26.83;;;4.00;99.90;;;;;;5012221;28;20218;-70
2022/12/08 02:28:22;;;;;;;48.77;27.93;;;3.90;99.90;;;;;;5011775;28;20198;-70
2022/12/08 02:31:22;;;;;;;50.43;27.63;;;3.80;99.90;;;;;;5011992;28;20189;-70
2022/12/08 02:34:03;;;;;;;48.60;29.17;;;3.80;99.90;;;;;;4973248;28;20402;-70
2022/12/08 02:36:53;;;;;;;47.97;28.30;;;3.80;99.90;;;;;;4972924;28;20220;-71
2022/12/08 02:39:32;;;;;;;48.73;27.50;;;3.80;99.90;;;;;;4973056;28;20240;-71
2022/12/08 02:42:11;;;;;;;49.27;26.90;;;3.90;99.90;;;;;;4972951;28;20188;-70
2022/12/08 02:44:42;;;;;;;46.53;27.07;;;3.90;99.90;;;;;;4972700;28;20254;-70
2022/12/08 02:47:15;;;;;;;47.63;29.30;;;3.80;99.90;;;;;;4972743;28;20192;-70
2022/12/08 02:49:41;;;;;;;50.37;30.37;;;3.80;99.90;;;;;;4981208;28;20179;-69
2022/12/08 02:52:26;;;;;;;54.30;31.00;;;3.80;99.90;;;;;;5051651;28;20189;-70
2022/12/08 02:55:02;;;;;;;53.57;28.83;;;3.70;99.90;;;;;;5051325;28;20169;-70
2022/12/08 02:57:55;;;;;;;52.27;29.57;;;3.70;99.90;;;;;;5050959;28;20169;-71
2022/12/08 03:00:23;;;;;;;49.37;28.23;;;3.60;99.90;;;;;;5051289;28;20665;-70
2022/12/08 03:03:14;;;;;;;46.90;28.90;;;3.70;99.90;;;;;;5051222;28;20169;-70
2022/12/08 03:06:05;;;;;;;51.40;29.00;;;3.70;99.90;;;;;;5051012;28;20681;-70
2022/12/08 03:08:43;;;;;;;55.00;29.77;;;3.70;99.90;;;;;;5051129;28;20208;-70
2022/12/08 03:11:35;;;;;;;49.33;29.57;;;3.80;99.90;;;;;;5084424;28;20211;-71
2022/12/08 03:14:03;;;;;;;46.00;28.53;;;3.80;99.90;;;;;;5093347;28;20168;-70
2022/12/08 03:16:32;;;;;;;50.47;29.87;;;3.80;99.90;;;;;;5093509;28;20168;-70
2022/12/08 03:19:25;;;;;;;53.73;30.33;;;3.80;99.90;;;;;;5093561;28;20159;-70
2022/12/08 03:21:59;;;;;;;48.57;28.67;;;3.80;99.90;;;;;;5093526;28;20623;-69
2022/12/08 03:24:25;;;;;;;51.27;28.97;;;3.80;99.90;;;;;;5093178;28;20271;-70
2022/12/08 03:27:04;;;;;;;51.57;28.87;;;3.80;99.90;;;;;;5093009;28;20713;-69
2022/12/08 03:29:31;;;;;;;52.03;30.17;;;3.90;99.90;;;;;;5093429;28;20180;-70
2022/12/08 03:32:15;;;;;;;45.00;28.37;;;3.90;99.90;;;;;;5093486;28;20283;-70
2022/12/08 03:34:45;;;;;;;49.47;28.87;;;3.90;99.90;;;;;;5093346;28;20159;-69
2022/12/08 03:37:11;;;;;;;55.73;29.13;;;3.90;99.90;;;;;;5093223;28;20176;-68
2022/12/08 03:39:37;;;;;;;45.67;28.80;;;3.90;99.90;;;;;;5093168;28;20187;-67
2022/12/08 03:42:03;;;;;;;49.03;28.63;;;3.90;99.90;;;;;;5092516;28;20205;-68
2022/12/08 03:44:28;;;;;;;48.83;28.97;;;3.90;99.90;;;;;;5093256;28;20246;-69
2022/12/08 03:46:54;;;;;;;47.53;29.27;;;3.90;99.90;;;;;;5093058;28;20238;-69
2022/12/08 03:49:19;;;;;;;48.90;27.90;;;3.90;99.90;;;;;;5093117;28;20565;-69
2022/12/08 03:51:45;;;;;;;49.53;27.70;;;3.90;99.90;;;;;;5092932;28;20171;-68
2022/12/08 03:54:11;;;;;;;46.10;26.90;;;4.00;99.90;;;;;;5093047;28;20554;-69
2022/12/08 03:56:37;;;;;;;47.90;27.07;;;4.10;99.90;;;;;;5092554;28;20251;-69
2022/12/08 03:59:04;;;;;;;45.87;26.90;;;4.10;99.90;;;;;;5093032;28;20176;-69
2022/12/08 04:01:30;;;;;;;46.10;27.53;;;4.20;99.90;;;;;;5092851;28;20176;-69
2022/12/08 04:03:55;;;;;;;45.43;26.77;;;4.10;99.90;;;;;;5074998;28;20168;-70
2022/12/08 04:06:21;;;;;;;43.90;26.13;;;4.10;99.90;;;;;;5092700;28;20667;-70
2022/12/08 04:08:49;;;;;;;42.00;25.60;;;4.10;99.90;;;;;;5092972;28;20168;-70
2022/12/08 04:11:14;;;;;;;41.53;26.50;;;4.10;99.90;;;;;;5092159;28;20301;-70
2022/12/08 04:13:41;;;;;;;43.70;25.30;;;4.00;99.90;;;;;;5092866;28;20625;-70
2022/12/08 04:16:07;;;;;;;40.80;25.37;;;4.00;99.90;;;;;;5092747;28;20255;-70
2022/12/08 04:18:34;;;;;;;39.77;24.73;;;4.10;99.90;;;;;;5092475;28;20206;-70
2022/12/08 04:21:00;;;;;;;39.70;24.93;;;4.00;99.90;;;;;;5092358;28;20179;-70
2022/12/08 04:23:26;;;;;;;42.53;25.43;;;4.00;99.90;;;;;;5092714;28;20262;-70
2022/12/08 04:25:52;;;;;;;49.23;26.90;;;3.90;99.90;;;;;;5092305;28;20200;-70
2022/12/08 04:28:18;;;;;;;40.53;24.70;;;4.00;99.90;;;;;;5092833;28;20175;-70
2022/12/08 04:30:44;;;;;;;41.27;24.67;;;4.00;99.90;;;;;;5092599;28;20180;-70
2022/12/08 04:33:10;;;;;;;38.23;24.70;;;4.00;99.90;;;;;;5092232;28;20171;-70
2022/12/08 04:35:36;;;;;;;42.77;23.63;;;4.00;99.90;;;;;;5093115;28;20254;-70
2022/12/08 04:38:01;;;;;;;42.93;23.47;;;4.10;99.90;;;;;;5096170;28;20172;-70
2022/12/08 04:40:27;;;;;;;40.80;23.97;;;4.10;99.90;;;;;;5095653;28;20192;-70
2022/12/08 04:42:53;;;;;;;35.30;24.00;;;4.10;99.90;;;;;;5095819;28;20573;-68
2022/12/08 04:45:18;;;;;;;40.90;23.73;;;4.10;99.90;;;;;;5095683;28;20200;-70
2022/12/08 04:47:44;;;;;;;38.80;22.67;;;4.00;99.90;;;;;;5095817;28;20588;-70
2022/12/08 04:50:10;;;;;;;44.50;24.03;;;3.90;99.90;;;;;;5095894;28;20270;-70
2022/12/08 04:52:36;;;;;;;39.57;23.33;;;4.00;99.90;;;;;;5095804;28;20196;-70
2022/12/08 04:55:02;;;;;;;37.83;24.30;;;4.10;99.90;;;;;;5094445;28;20172;-69
2022/12/08 04:57:28;;;;;;;36.67;22.60;;;4.00;99.90;;;;;;5095472;28;20262;-69
2022/12/08 04:59:54;;;;;;;37.50;23.73;;;4.00;99.90;;;;;;5095477;28;20164;-70
2022/12/08 05:02:19;;;;;;;44.47;24.80;;;4.00;99.90;;;;;;5077455;28;20266;-70
2022/12/08 05:04:45;;;;;;;39.73;23.57;;;4.00;99.90;;;;;;5095161;28;20195;-69
2022/12/08 05:07:10;;;;;;;41.20;24.37;;;4.00;99.90;;;;;;5095482;28;20183;-69
2022/12/08 05:09:36;;;;;;;39.20;24.37;;;4.00;99.90;;;;;;5095141;28;20164;-70
2022/12/08 05:12:02;;;;;;;39.60;23.90;;;4.20;99.90;;;;;;5095095;28;20765;-69
2022/12/08 05:14:27;;;;;;;38.33;23.50;;;4.10;99.90;;;;;;5094718;28;20164;-70
2022/12/08 05:16:53;;;;;;;35.77;22.70;;;4.00;99.90;;;;;;5095065;28;20168;-70
2022/12/08 05:19:19;;;;;;;35.93;20.80;;;4.00;99.90;;;;;;5095472;28;20164;-70
2022/12/08 05:21:44;;;;;;;38.03;22.83;;;3.90;99.90;;;;;;5094825;28;20221;-69
2022/12/08 05:24:10;;;;;;;35.17;21.23;;;3.90;99.90;;;;;;5095064;28;20168;-71
2022/12/08 05:26:35;;;;;;;35.87;21.37;;;3.80;99.90;;;;;;5094608;28;20609;-70
2022/12/08 05:29:01;;;;;;;36.20;22.30;;;3.80;99.90;;;;;;5094777;28;20525;-70
2022/12/08 05:31:27;;;;;;;34.87;21.73;;;3.80;99.90;;;;;;5094596;28;20179;-69
2022/12/08 05:33:52;;;;;;;32.83;20.47;;;3.80;99.90;;;;;;5094746;28;20175;-71
2022/12/08 05:36:19;;;;;;;34.33;21.17;;;3.70;99.90;;;;;;5094592;28;20601;-69
2022/12/08 05:38:45;;;;;;;37.20;22.10;;;3.70;99.90;;;;;;5076250;28;20178;-69
2022/12/08 05:41:20;;;;;;;37.83;21.43;;;3.70;99.90;;;;;;5094511;28;20232;-70
2022/12/08 05:43:46;;;;;;;33.73;22.37;;;3.70;99.90;;;;;;5093141;28;20631;-70
2022/12/08 05:46:12;;;;;;;40.47;22.70;;;3.70;99.90;;;;;;5094627;28;20219;-70
2022/12/08 05:48:38;;;;;;;33.07;20.30;;;3.70;99.90;;;;;;5075388;28;20175;-69
2022/12/08 05:51:05;;;;;;;38.17;21.90;;;3.80;99.90;;;;;;5093703;28;20675;-70
2022/12/08 05:53:31;;;;;;;33.90;21.13;;;3.70;99.90;;;;;;5075598;28;20187;-70
2022/12/08 05:55:57;;;;;;;42.53;22.07;;;3.70;99.90;;;;;;5094443;28;20615;-70
2022/12/08 05:58:22;;;;;;;35.37;20.83;;;3.60;99.90;;;;;;5092716;28;20643;-70
2022/12/08 06:00:49;;;;;;;33.27;20.77;;;3.60;99.90;;;;;;5094014;28;20168;-71
2022/12/08 06:03:17;;;;;;;33.87;20.07;;;3.60;99.90;;;;;;5094068;28;20171;-69
2022/12/08 06:05:44;;;;;;;36.93;20.97;;;3.60;99.90;;;;;;5093372;28;20238;-70
2022/12/08 06:08:11;;;;;;;32.80;20.27;;;3.60;99.90;;;;;;5093647;28;20639;-70
2022/12/08 06:10:38;;;;;;;35.20;19.70;;;3.60;99.90;;;;;;5093657;28;20223;-70
2022/12/08 06:13:04;;;;;;;34.13;21.33;;;3.50;99.90;;;;;;5092891;28;20176;-70
2022/12/08 06:15:29;;;;;;;32.07;20.40;;;3.60;99.90;;;;;;5093237;28;20168;-71
2022/12/08 06:17:55;;;;;;;36.20;20.77;;;3.60;99.90;;;;;;5093259;28;20243;-70
2022/12/08 06:20:21;;;;;;;37.40;20.23;;;3.60;99.90;;;;;;5093539;28;20172;-70
2022/12/08 06:22:46;;;;;;;32.23;18.63;;;3.60;99.90;;;;;;5093274;28;20164;-71
2022/12/08 06:25:12;;;;;;;32.17;18.33;;;3.70;99.90;;;;;;5093492;28;20241;-71
2022/12/08 06:27:37;;;;;;;36.40;19.83;;;3.60;99.90;;;;;;5091548;28;20172;-71
2022/12/08 06:30:04;;;;;;;28.43;18.53;;;3.60;99.90;;;;;;5092528;28;20168;-72
2022/12/08 06:32:29;;;;;;;36.90;19.50;;;3.50;99.90;;;;;;5093173;28;20171;-71
2022/12/08 06:34:55;;;;;;;31.90;19.70;;;3.60;99.90;;;;;;5073985;28;20172;-71
2022/12/08 06:37:20;;;;;;;38.60;19.40;;;3.60;99.90;;;;;;5091638;28;20504;-71
2022/12/08 06:39:46;;;;;;;29.73;17.50;;;3.50;99.90;;;;;;5092673;28;20202;-71
2022/12/08 06:44:56;;;;;;;32.53;17.93;;;3.50;99.90;;;;;;5093399;28;20244;-71
2022/12/08 06:47:22;;;;;;;28.37;18.40;;;3.50;99.90;;;;;;5092496;28;20180;-72
2022/12/08 06:49:47;;;;;;;32.93;19.33;;;3.50;99.90;;;;;;5092495;28;20174;-71
2022/12/08 06:52:14;;;;;;;28.63;19.13;;;3.50;99.90;;;;;;5091353;28;20172;-70
2022/12/08 06:54:39;;;;;;;28.10;17.57;;;3.60;99.90;;;;;;5091626;28;20628;-70
2022/12/08 06:57:05;;;;;;;36.77;18.43;;;3.70;99.90;;;;;;5092241;28;20160;-70
2022/12/08 06:59:31;;;;;;;31.77;19.07;;;3.70;99.90;;;;;;5092229;28;20168;-71
2022/12/08 07:01:56;;;;;;;32.90;18.10;;;3.70;99.90;;;;;;5093034;28;20241;-71
2022/12/08 07:04:22;;;;;;;36.03;18.37;;;3.70;99.90;;;;;;5092131;28;20704;-71
2022/12/08 07:06:47;;;;;;;31.00;18.07;;;3.60;99.90;;;;;;5091009;28;20287;-70
2022/12/08 07:09:13;;;;;;;32.73;17.93;;;3.60;99.90;;;;;;5092582;28;20615;-71
2022/12/08 07:11:39;;;;;;;32.87;19.10;;;3.70;99.90;;;;;;5091836;28;20234;-71
2022/12/08 07:14:05;;;;;;;32.03;19.07;;;3.80;99.90;;;;;;5092521;28;20168;-72
2022/12/08 07:16:31;;;;;;;32.40;19.30;;;3.90;99.90;;;;;;5091939;28;20528;-71
2022/12/08 07:18:56;;;;;;;31.30;17.97;;;3.90;99.90;;;;;;5091292;28;20174;-70
2022/12/08 07:21:22;;;;;;;29.53;17.73;;;3.90;99.90;;;;;;5083715;28;20189;-69
2022/12/08 07:23:49;;;;;;;32.13;18.43;;;3.90;99.90;;;;;;5091333;28;20179;-70
2022/12/08 07:26:14;;;;;;;29.90;17.50;;;3.90;99.90;;;;;;5091227;28;20204;-70
2022/12/08 07:28:41;;;;;;;27.37;17.27;;;3.90;99.90;;;;;;5084614;28;20653;-70
2022/12/08 07:31:14;;;;;;;27.20;18.00;;;4.00;99.90;;;;;;5084768;28;20642;-70
2022/12/08 07:33:40;;;;;;;25.17;16.60;;;4.00;99.90;;;;;;5069864;28;20253;-70
2022/12/08 07:36:05;;;;;;;26.60;16.37;;;4.10;99.90;;;;;;5086602;28;20635;-72
2022/12/08 07:38:31;;;;;;;30.00;17.53;;;4.10;99.90;;;;;;5091154;28;20216;-71
2022/12/08 07:40:57;;;;;;;37.77;17.60;;;4.20;99.90;;;;;;5085777;28;20600;-70
2022/12/08 07:43:23;;;;;;;31.83;17.90;;;4.30;99.90;;;;;;5062519;28;20171;-69
2022/12/08 07:45:49;;;;;;;27.60;16.50;;;4.30;99.90;;;;;;5078123;28;20702;-70
2022/12/08 07:48:15;;;;;;;28.47;16.90;;;4.30;99.90;;;;;;5087092;28;20171;-69
2022/12/08 07:50:42;;;;;;;29.17;17.63;;;4.30;99.90;;;;;;5073936;28;20232;-70
2022/12/08 07:53:08;;;;;;;30.40;18.50;;;4.30;99.90;;;;;;5083763;28;20169;-69
2022/12/08 07:55:37;;;;;;;27.03;16.73;;;4.30;99.90;;;;;;5080615;28;20184;-70
2022/12/08 07:58:03;;;;;;;25.20;16.67;;;4.30;99.90;;;;;;5076722;28;20168;-71
2022/12/08 08:00:29;;;;;;;27.80;16.57;;;4.20;99.90;;;;;;5086526;28;20777;-71
2022/12/08 08:02:55;;;;;;;32.30;17.07;;;4.20;99.90;;;;;;5075271;28;20172;-70
2022/12/08 08:05:21;;;;;;;27.93;16.33;;;4.20;99.90;;;;;;5091463;28;20674;-70
2022/12/08 08:07:47;;;;;;;32.13;18.30;;;4.20;99.90;;;;;;5078054;28;20176;-69
2022/12/08 08:10:13;;;;;;;29.50;16.57;;;4.30;99.90;;;;;;5086035;28;20176;-69
2022/12/08 08:12:38;;;;;;;27.40;15.90;;;4.30;99.90;;;;;;5078188;28;20325;-69
2022/12/08 08:15:06;;;;;;;29.93;17.20;;;4.30;99.90;;;;;;5087971;28;20184;-71
2022/12/08 08:17:32;;;;;;;27.63;16.50;;;4.30;99.90;;;;;;5084719;28;20253;-69
2022/12/08 08:19:59;;;;;;;31.37;17.33;;;4.30;99.90;;;;;;5081540;28;20547;-70
2022/12/08 08:22:25;;;;;;;26.53;16.47;;;4.30;99.90;;;;;;5091180;28;20168;-70
2022/12/08 08:24:51;;;;;;;34.27;17.63;;;4.30;99.90;;;;;;5060591;28;20599;-70
2022/12/08 08:27:17;;;;;;;32.50;17.37;;;4.20;99.90;;;;;;5085814;28;20204;-68
2022/12/08 08:29:42;;;;;;;33.03;17.50;;;4.20;99.90;;;;;;5086111;28;20225;-70
2022/12/08 08:32:08;;;;;;;30.23;17.10;;;4.20;99.90;;;;;;5075139;28;20196;-68
2022/12/08 08:34:33;;;;;;;30.60;17.77;;;4.20;99.90;;;;;;5090678;28;20643;-69
2022/12/08 08:36:59;;;;;;;34.40;17.53;;;4.30;99.90;;;;;;5080408;28;20259;-67
2022/12/08 08:39:24;;;;;;;30.40;18.30;;;4.20;99.90;;;;;;5085280;28;20193;-69
2022/12/08 08:41:50;;;;;;;31.03;17.47;;;4.30;99.90;;;;;;5064944;28;20592;-68
2022/12/08 08:44:16;;;;;;;31.80;18.33;;;4.30;99.90;;;;;;5093430;28;20167;-68
2022/12/08 08:46:41;;;;;;;34.53;17.40;;;4.30;99.90;;;;;;5092533;28;20214;-72
2022/12/08 08:49:07;;;;;;;33.60;18.03;;;4.30;99.90;;;;;;5094723;28;20679;-69
2022/12/08 08:51:33;;;;;;;30.50;16.90;;;4.40;99.90;;;;;;5094229;28;20176;-73
2022/12/08 08:53:58;;;;;;;32.73;18.47;;;4.30;99.90;;;;;;5094758;28;20204;-69
2022/12/08 08:56:24;;;;;;;34.47;18.30;;;4.20;99.90;;;;;;5066809;28;20266;-68
2022/12/08 08:58:52;;;;;;;36.90;18.47;;;4.30;99.90;;;;;;5071769;28;20204;-71
2022/12/08 09:01:20;;;;;;;31.73;18.10;;;4.30;99.90;;;;;;5081856;28;20616;-70
2022/12/08 09:03:47;;;;;;;32.77;18.47;;;4.30;99.90;;;;;;5064307;28;20184;-70
2022/12/08 09:06:14;;;;;;;31.37;18.13;;;4.30;99.90;;;;;;5072562;28;20215;-70
2022/12/08 09:08:40;;;;;;;33.13;19.37;;;4.40;99.90;;;;;;5092068;28;20245;-72
2022/12/08 09:11:06;;;;;;;31.20;17.90;;;4.50;99.90;;;;;;5093832;28;20578;-71
2022/12/08 09:13:32;;;;;;;36.27;17.97;;;4.40;99.90;;;;;;5094128;28;20168;-73
2022/12/08 09:16:00;;;;;;;31.93;17.83;;;4.60;99.90;;;;;;5079532;28;20188;-68
2022/12/08 09:18:28;;;;;;;35.40;17.23;;;4.50;99.90;;;;;;5091733;28;20544;-67
2022/12/08 09:20:54;;;;;;;33.63;17.27;;;4.60;99.90;;;;;;5094386;28;20180;-70
2022/12/08 09:23:19;;;;;;;30.13;17.87;;;4.50;99.90;;;;;;5083903;28;20180;-70
2022/12/08 09:25:45;;;;;;;28.63;17.87;;;4.40;99.90;;;;;;5093636;28;20235;-70
2022/12/08 09:28:11;;;;;;;28.53;16.90;;;4.40;99.90;;;;;;5093029;28;20168;-69
2022/12/08 09:30:38;;;;;;;29.80;17.47;;;4.50;99.90;;;;;;5077175;28;20175;-70
2022/12/08 09:33:03;;;;;;;31.17;16.97;;;4.60;99.90;;;;;;5093276;28;20251;-70
2022/12/08 09:35:29;;;;;;;27.60;17.00;;;4.60;99.90;;;;;;5083693;28;20633;-69
2022/12/08 09:37:54;;;;;;;27.53;16.63;;;4.70;99.90;;;;;;5083391;28;20187;-69
2022/12/08 09:40:22;;;;;;;25.67;16.27;;;4.80;99.90;;;;;;5076824;28;20515;-70
2022/12/08 09:43:03;;;;;;;29.23;16.87;;;4.80;99.90;;;;;;5089068;28;20169;-70
2022/12/08 09:45:33;;;;;;;31.67;17.53;;;4.80;99.90;;;;;;5081771;28;20671;-70
2022/12/08 09:48:09;;;;;;;29.57;15.80;;;4.80;99.90;;;;;;5072351;28;20184;-71
2022/12/08 09:50:44;;;;;;;28.07;14.97;;;4.90;99.90;;;;;;5087343;28;20195;-69
2022/12/08 09:53:21;;;;;;;29.33;16.03;;;5.00;99.90;;;;;;5093393;28;20174;-71
2022/12/08 09:55:54;;;;;;;28.10;15.17;;;5.10;99.90;;;;;;5073446;28;20183;-72
2022/12/08 09:58:57;;;;;;;27.27;16.17;;;5.10;99.90;;;;;;5093020;28;20209;-71
2022/12/08 10:01:27;;;;;;;32.07;16.17;;;5.20;99.90;;;;;;5081880;28;20171;-70
2022/12/08 10:03:54;;;;;;;26.83;14.87;;;5.10;99.90;;;;;;5079245;28;20176;-69
2022/12/08 10:06:36;;;;;;;27.10;15.67;;;5.10;99.90;;;;;;5089587;28;20211;-71
2022/12/08 10:09:11;;;;;;;29.53;15.83;;;5.30;99.90;;;;;;5087562;28;20669;-70
2022/12/08 10:11:50;;;;;;;32.20;15.30;;;5.50;99.90;;;;;;5081833;28;20269;-70
2022/12/08 10:14:25;;;;;;;28.67;15.67;;;5.80;99.90;;;;;;5089078;28;20187;-70
2022/12/08 10:16:58;;;;;;;25.30;13.83;;;6.10;99.90;;;;;;5077176;28;20156;-73
2022/12/08 10:19:25;;;;;;;21.77;13.73;;;6.40;99.90;;;;;;5093234;28;20183;-71
2022/12/08 10:21:53;;;;;;;27.17;14.70;;;6.90;99.90;;;;;;5086549;28;20626;-68
2022/12/08 10:24:33;;;;;;;25.33;13.37;;;7.50;99.90;;;;;;5092832;28;20228;-68
2022/12/08 10:27:00;;;;;;;25.37;13.20;;;8.10;99.90;;;;;;5061442;28;20287;-69
2022/12/08 10:29:26;;;;;;;21.73;13.00;;;8.20;99.90;;;;;;5081701;28;20168;-71
2022/12/08 10:31:52;;;;;;;22.60;12.57;;;8.00;99.90;;;;;;5074063;28;20520;-72
2022/12/08 10:34:23;;;;;;;19.40;12.47;;;8.10;99.90;;;;;;5056595;28;20730;-73
2022/12/08 10:36:53;;;;;;;19.73;12.20;;;8.70;99.90;;;;;;5089955;28;20498;-73
2022/12/08 10:39:37;;;;;;;22.40;12.03;;;8.50;99.90;;;;;;5065688;28;20216;-72
2022/12/08 10:42:21;;;;;;;21.00;11.33;;;8.90;99.90;;;;;;5083032;28;20179;-72
2022/12/08 10:45:07;;;;;;;19.80;11.03;;;9.30;99.90;;;;;;5092457;28;20168;-68
2022/12/08 10:47:39;;;;;;;17.33;11.07;;;9.30;99.90;;;;;;5081011;28;20241;-70
2022/12/08 10:50:16;;;;;;;20.87;11.63;;;9.50;99.90;;;;;;5087391;28;20176;-72
2022/12/08 10:52:42;;;;;;;24.67;12.00;;;10.00;99.90;;;;;;5087909;28;20156;-69
2022/12/08 10:55:19;;;;;;;17.33;11.27;;;9.50;99.90;;;;;;5078780;28;20502;-70
2022/12/08 10:57:47;;;;;;;22.67;12.20;;;9.80;99.90;;;;;;5080103;28;20264;-69
2022/12/08 11:00:16;;;;;;;16.40;10.53;;;10.10;99.90;;;;;;5087611;28;20172;-68
2022/12/08 11:03:21;;;;;;;21.77;11.60;;;10.10;99.90;;;;;;5086540;28;20176;-69
2022/12/08 11:05:46;;;;;;;16.17;10.67;;;10.10;99.90;;;;;;5009925;28;20709;-69
2022/12/08 11:08:15;;;;;;;21.27;11.77;;;9.80;99.90;;;;;;4993343;28;20307;-69
2022/12/08 11:10:44;;;;;;;22.60;11.70;;;9.60;99.90;;;;;;4992536;28;20226;-70
2022/12/08 11:13:21;;;;;;;21.67;12.07;;;9.90;99.90;;;;;;5000688;28;20741;-69
2022/12/08 11:15:47;;;;;;;17.23;10.97;;;10.00;99.90;;;;;;5009922;28;20669;-70
2022/12/08 11:18:28;;;;;;;18.10;12.90;;;10.20;99.90;;;;;;5009978;28;21038;-68
2022/12/08 11:21:06;;;;;;;18.40;11.20;;;10.90;99.90;;;;;;4994625;28;20222;-69
2022/12/08 11:23:34;;;;;;;20.00;11.63;;;10.70;99.90;;;;;;5009329;28;20193;-71
2022/12/08 11:26:06;;;;;;;16.50;11.40;;;10.90;99.90;;;;;;5002484;28;20218;-69
2022/12/08 11:28:31;;;;;;;22.60;15.27;;;11.00;99.90;;;;;;5008529;28;20217;-68
2022/12/08 11:31:04;;;;;;;20.13;12.13;;;10.80;99.90;;;;;;5002768;28;20175;-68
2022/12/08 11:33:29;;;;;;;19.67;12.47;;;10.60;99.90;;;;;;4989866;28;20639;-68
2022/12/08 11:36:03;;;;;;;22.50;12.70;;;10.60;99.90;;;;;;5004650;28;20202;-68
2022/12/08 11:38:31;;;;;;;17.77;11.50;;;10.50;99.90;;;;;;5007390;28;20210;-68
2022/12/08 11:41:20;;;;;;;25.53;16.03;;;10.70;99.90;;;;;;5000137;28;20182;-70
2022/12/08 11:43:59;;;;;;;17.17;10.30;;;10.90;99.90;;;;;;5059277;28;20184;-67
2022/12/08 11:46:31;;;;;;;17.00;12.23;;;11.00;99.90;;;;;;5066257;28;20215;-68
2022/12/08 11:49:01;;;;;;;17.73;11.47;;;11.10;99.90;;;;;;5060283;28;20175;-67
2022/12/08 11:51:35;;;;;;;39.73;26.53;;;10.60;99.90;;;;;;5075019;28;20204;-70
2022/12/08 11:54:05;;;;;;;25.43;18.70;;;10.70;99.90;;;;;;5075019;28;20174;-68
2022/12/08 11:56:45;;;;;;;22.17;16.13;;;10.60;99.90;;;;;;5071358;28;20259;-68
2022/12/08 11:59:45;;;;;;;22.40;18.17;;;10.50;99.90;;;;;;5074093;28;20173;-67
2022/12/08 12:02:22;;;;;;;15.77;9.80;;;10.60;99.90;;;;;;5070811;28;20161;-68
2022/12/08 12:05:05;;;;;;;15.33;9.93;;;10.10;99.90;;;;;;5059278;28;20564;-67
2022/12/08 12:07:43;;;;;;;19.03;9.90;;;10.10;99.90;;;;;;5073199;28;20644;-69
2022/12/08 12:10:33;;;;;;;14.03;9.33;;;9.80;99.90;;;;;;5063734;28;20514;-67
2022/12/08 12:13:18;;;;;;;15.37;10.70;;;9.80;99.90;;;;;;5053612;28;20193;-67
2022/12/08 12:15:43;;;;;;;20.20;8.67;;;10.10;99.90;;;;;;5054153;28;20187;-66
2022/12/08 12:18:30;;;;;;;17.63;9.87;;;9.40;99.90;;;;;;5043489;28;20173;-66
2022/12/08 12:21:00;;;;;;;15.40;8.87;;;9.20;99.90;;;;;;5039278;28;20173;-67
2022/12/08 12:23:42;;;;;;;15.33;9.70;;;9.00;99.90;;;;;;5054345;28;20284;-67
2022/12/08 12:26:16;;;;;;;13.73;8.80;;;8.80;99.90;;;;;;5039227;28;20680;-67
2022/12/08 12:28:51;;;;;;;19.33;10.30;;;8.70;99.90;;;;;;5051161;28;20252;-66
2022/12/08 12:31:20;;;;;;;18.87;10.77;;;8.70;99.90;;;;;;5042971;28;20600;-67
2022/12/08 12:33:47;;;;;;;14.23;9.57;;;8.70;99.90;;;;;;5042598;28;20170;-66
2022/12/08 12:36:13;;;;;;;15.40;9.93;;;8.60;99.90;;;;;;5048846;28;20177;-68
2022/12/08 12:39:02;;;;;;;20.30;10.97;;;8.40;99.90;;;;;;5051393;28;20193;-67
2022/12/08 12:41:44;;;;;;;20.23;10.77;;;8.50;99.90;;;;;;5052430;28;20181;-67
2022/12/08 12:44:12;;;;;;;16.75;11.40;;;8.70;99.90;;;;;;5054047;28;20409;-68
2022/12/08 12:46:40;;;;;;;24.90;12.37;;;8.40;99.90;;;;;;5051120;28;20205;-68
2022/12/08 12:49:38;;;;;;;17.43;10.07;;;8.50;99.90;;;;;;5038396;28;20169;-69
2022/12/08 12:52:17;;;;;;;14.73;8.80;;;8.40;99.90;;;;;;5031415;28;20197;-69
2022/12/08 12:55:04;;;;;;;22.90;16.90;;;8.40;99.90;;;;;;5053846;28;20180;-69